sensor_id;sensor_type;location;lat;lon;timestamp;temperature;humidity
11569;DHT22;5840;46.894;15.542;2022-09-09T00:01:56;15.40;99.90
11569;DHT22;5840;46.894;15.542;2022-09-09T00:04:28;15.40;99.90
11569;DHT22;5840;46.894;15.542;2022-09-09T00:07:03;15.40;99.90
11569;DHT22;5840;46.894;15.542;2022-09-09T00:09:36;15.40;99.90
11569;DHT22;5840;46.894;15.542;2022-09-09T00:12:11;15.40;99.90
11569;DHT22;5840;46.894;15.542;2022-09-09T00:14:47;15.40;99.90
11569;DHT22;5840;46.894;15.542;2022-09-09T00:17:23;15.40;99.90
11569;DHT22;5840;46.894;15.542;2022-09-09T00:19:56;15.40;99.90
11569;DHT22;5840;46.894;15.542;2022-09-09T00:22:28;15.40;99.90
11569;DHT22;5840;46.894;15.542;2022-09-09T00:25:02;15.30;99.90
11569;DHT22;5840;46.894;15.542;2022-09-09T00:27:40;15.30;99.90
11569;DHT22;5840;46.894;15.542;2022-09-09T00:30:16;15.20;99.90
11569;DHT22;5840;46.894;15.542;2022-09-09T00:32:46;15.20;99.90
11569;DHT22;5840;46.894;15.542;2022-09-09T00:35:18;15.20;99.90
11569;DHT22;5840;46.894;15.542;2022-09-09T00:37:50;15.20;99.90
11569;DHT22;5840;46.894;15.542;2022-09-09T00:40:24;15.20;99.90
11569;DHT22;5840;46.894;15.542;2022-09-09T00:43:01;15.20;99.90
11569;DHT22;5840;46.894;15.542;2022-09-09T00:48:34;15.20;99.90
11569;DHT22;5840;46.894;15.542;2022-09-09T00:51:07;15.20;99.90
11569;DHT22;5840;46.894;15.542;2022-09-09T00:53:42;15.20;99.90
11569;DHT22;5840;46.894;15.542;2022-09-09T00:56:13;15.10;99.90
11569;DHT22;5840;46.894;15.542;2022-09-09T00:58:42;15.10;99.90
11569;DHT22;5840;46.894;15.542;2022-09-09T01:01:12;15.10;99.90
11569;DHT22;5840;46.894;15.542;2022-09-09T01:03:44;15.10;99.90
11569;DHT22;5840;46.894;15.542;2022-09-09T01:06:16;15.10;99.90
11569;DHT22;5840;46.894;15.542;2022-09-09T01:09:08;15.10;99.90
11569;DHT22;5840;46.894;15.542;2022-09-09T01:11:43;15.00;99.90
11569;DHT22;5840;46.894;15.542;2022-09-09T01:14:23;15.00;99.90
11569;DHT22;5840;46.894;15.542;2022-09-09T01:16:55;14.90;99.90
11569;DHT22;5840;46.894;15.542;2022-09-09T01:19:31;14.90;99.90
11569;DHT22;5840;46.894;15.542;2022-09-09T01:22:06;14.80;99.90
11569;DHT22;5840;46.894;15.542;2022-09-09T01:24:42;14.80;99.90
11569;DHT22;5840;46.894;15.542;2022-09-09T01:27:15;14.80;99.90
11569;DHT22;5840;46.894;15.542;2022-09-09T01:29:43;14.80;99.90
11569;DHT22;5840;46.894;15.542;2022-09-09T01:32:37;14.80;99.90
11569;DHT22;5840;46.894;15.542;2022-09-09T01:35:06;14.90;99.90
11569;DHT22;5840;46.894;15.542;2022-09-09T01:37:34;14.90;99.90
11569;DHT22;5840;46.894;15.542;2022-09-09T01:40:01;14.80;99.90
11569;DHT22;5840;46.894;15.542;2022-09-09T01:42:30;14.80;99.90
11569;DHT22;5840;46.894;15.542;2022-09-09T01:44:57;14.80;99.90
11569;DHT22;5840;46.894;15.542;2022-09-09T01:47:24;14.80;99.90
11569;DHT22;5840;46.894;15.542;2022-09-09T01:49:52;14.70;99.90
11569;DHT22;5840;46.894;15.542;2022-09-09T01:52:18;14.70;99.90
11569;DHT22;5840;46.894;15.542;2022-09-09T01:54:45;14.70;99.90
11569;DHT22;5840;46.894;15.542;2022-09-09T01:57:17;14.70;99.90
11569;DHT22;5840;46.894;15.542;2022-09-09T01:59:56;14.70;99.90
11569;DHT22;5840;46.894;15.542;2022-09-09T02:02:30;14.70;99.90
11569;DHT22;5840;46.894;15.542;2022-09-09T02:05:06;14.70;99.90
11569;DHT22;5840;46.894;15.542;2022-09-09T02:07:39;14.60;99.90
11569;DHT22;5840;46.894;15.542;2022-09-09T02:10:11;14.60;99.90
11569;DHT22;5840;46.894;15.542;2022-09-09T02:12:41;14.60;99.90
11569;DHT22;5840;46.894;15.542;2022-09-09T02:15:17;14.50;99.90
11569;DHT22;5840;46.894;15.542;2022-09-09T02:17:45;14.60;99.90
11569;DHT22;5840;46.894;15.542;2022-09-09T02:20:14;14.60;99.90
11569;DHT22;5840;46.894;15.542;2022-09-09T02:22:44;14.60;99.90
11569;DHT22;5840;46.894;15.542;2022-09-09T02:25:14;14.60;99.90
11569;DHT22;5840;46.894;15.542;2022-09-09T02:27:43;14.60;99.90
11569;DHT22;5840;46.894;15.542;2022-09-09T02:30:13;14.60;99.90
11569;DHT22;5840;46.894;15.542;2022-09-09T02:32:42;14.60;99.90
11569;DHT22;5840;46.894;15.542;2022-09-09T02:35:12;14.60;99.90
11569;DHT22;5840;46.894;15.542;2022-09-09T02:37:42;14.60;99.90
11569;DHT22;5840;46.894;15.542;2022-09-09T02:40:11;14.60;99.90
11569;DHT22;5840;46.894;15.542;2022-09-09T02:42:40;14.60;99.90
11569;DHT22;5840;46.894;15.542;2022-09-09T02:45:10;14.60;99.90
11569;DHT22;5840;46.894;15.542;2022-09-09T02:47:45;14.60;99.90
11569;DHT22;5840;46.894;15.542;2022-09-09T02:50:19;14.60;99.90
11569;DHT22;5840;46.894;15.542;2022-09-09T02:52:59;14.60;99.90
11569;DHT22;5840;46.894;15.542;2022-09-09T02:55:36;14.60;99.90
11569;DHT22;5840;46.894;15.542;2022-09-09T02:58:06;14.60;99.90
11569;DHT22;5840;46.894;15.542;2022-09-09T03:00:33;14.60;99.90
11569;DHT22;5840;46.894;15.542;2022-09-09T03:03:04;14.60;99.90
11569;DHT22;5840;46.894;15.542;2022-09-09T03:05:31;14.60;99.90
11569;DHT22;5840;46.894;15.542;2022-09-09T03:07:58;14.60;99.90
11569;DHT22;5840;46.894;15.542;2022-09-09T03:10:25;14.60;99.90
11569;DHT22;5840;46.894;15.542;2022-09-09T03:12:52;14.60;99.90
11569;DHT22;5840;46.894;15.542;2022-09-09T03:15:19;14.60;99.90
11569;DHT22;5840;46.894;15.542;2022-09-09T03:17:46;14.60;99.90
11569;DHT22;5840;46.894;15.542;2022-09-09T03:20:14;14.60;99.90
11569;DHT22;5840;46.894;15.542;2022-09-09T03:22:41;14.60;99.90
11569;DHT22;5840;46.894;15.542;2022-09-09T03:25:10;14.50;99.90
11569;DHT22;5840;46.894;15.542;2022-09-09T03:27:37;14.50;99.90
11569;DHT22;5840;46.894;15.542;2022-09-09T03:30:05;14.60;99.90
11569;DHT22;5840;46.894;15.542;2022-09-09T03:32:32;14.50;99.90
11569;DHT22;5840;46.894;15.542;2022-09-09T03:34:59;14.50;99.90
11569;DHT22;5840;46.894;15.542;2022-09-09T03:37:27;14.50;99.90
11569;DHT22;5840;46.894;15.542;2022-09-09T03:39:54;14.50;99.90
11569;DHT22;5840;46.894;15.542;2022-09-09T03:42:21;14.40;99.90
11569;DHT22;5840;46.894;15.542;2022-09-09T03:44:48;14.40;99.90
11569;DHT22;5840;46.894;15.542;2022-09-09T03:47:17;14.40;99.90
11569;DHT22;5840;46.894;15.542;2022-09-09T03:49:44;14.40;99.90
11569;DHT22;5840;46.894;15.542;2022-09-09T03:52:12;14.40;99.90
11569;DHT22;5840;46.894;15.542;2022-09-09T03:54:40;14.40;99.90
11569;DHT22;5840;46.894;15.542;2022-09-09T03:57:08;14.40;99.90
11569;DHT22;5840;46.894;15.542;2022-09-09T03:59:35;14.40;99.90
11569;DHT22;5840;46.894;15.542;2022-09-09T04:02:02;14.40;99.90
11569;DHT22;5840;46.894;15.542;2022-09-09T04:04:29;14.40;99.90
11569;DHT22;5840;46.894;15.542;2022-09-09T04:06:56;14.30;99.90
11569;DHT22;5840;46.894;15.542;2022-09-09T04:09:23;14.40;99.90
11569;DHT22;5840;46.894;15.542;2022-09-09T04:11:51;14.30;99.90
11569;DHT22;5840;46.894;15.542;2022-09-09T04:14:20;14.30;99.90
11569;DHT22;5840;46.894;15.542;2022-09-09T04:16:47;14.30;99.90
11569;DHT22;5840;46.894;15.542;2022-09-09T04:19:14;14.30;99.90
11569;DHT22;5840;46.894;15.542;2022-09-09T04:21:41;14.30;99.90
11569;DHT22;5840;46.894;15.542;2022-09-09T04:24:08;14.30;99.90
11569;DHT22;5840;46.894;15.542;2022-09-09T04:26:36;14.30;99.90
11569;DHT22;5840;46.894;15.542;2022-09-09T04:29:05;14.30;99.90
11569;DHT22;5840;46.894;15.542;2022-09-09T04:31:33;14.30;99.90
11569;DHT22;5840;46.894;15.542;2022-09-09T04:34:00;14.30;99.90
11569;DHT22;5840;46.894;15.542;2022-09-09T04:36:31;14.30;99.90
11569;DHT22;5840;46.894;15.542;2022-09-09T04:38:58;14.30;99.90
11569;DHT22;5840;46.894;15.542;2022-09-09T04:41:25;14.30;99.90
11569;DHT22;5840;46.894;15.542;2022-09-09T04:43:52;14.30;99.90
11569;DHT22;5840;46.894;15.542;2022-09-09T04:46:21;14.30;99.90
11569;DHT22;5840;46.894;15.542;2022-09-09T04:48:49;14.40;99.90
11569;DHT22;5840;46.894;15.542;2022-09-09T04:51:17;14.40;99.90
11569;DHT22;5840;46.894;15.542;2022-09-09T04:53:44;14.40;99.90
11569;DHT22;5840;46.894;15.542;2022-09-09T04:56:13;14.40;99.90
11569;DHT22;5840;46.894;15.542;2022-09-09T04:58:41;14.30;99.90
11569;DHT22;5840;46.894;15.542;2022-09-09T05:01:09;14.30;99.90
11569;DHT22;5840;46.894;15.542;2022-09-09T05:03:38;14.30;99.90
11569;DHT22;5840;46.894;15.542;2022-09-09T05:06:06;14.30;99.90
11569;DHT22;5840;46.894;15.542;2022-09-09T05:08:35;14.30;99.90
11569;DHT22;5840;46.894;15.542;2022-09-09T05:11:03;14.30;99.90
11569;DHT22;5840;46.894;15.542;2022-09-09T05:13:30;14.30;99.90
11569;DHT22;5840;46.894;15.542;2022-09-09T05:15:58;14.40;99.90
11569;DHT22;5840;46.894;15.542;2022-09-09T05:18:25;14.40;99.90
11569;DHT22;5840;46.894;15.542;2022-09-09T05:20:58;14.50;99.90
11569;DHT22;5840;46.894;15.542;2022-09-09T05:23:25;14.50;99.90
11569;DHT22;5840;46.894;15.542;2022-09-09T05:25:56;14.50;99.90
11569;DHT22;5840;46.894;15.542;2022-09-09T05:28:24;14.60;99.90
11569;DHT22;5840;46.894;15.542;2022-09-09T05:30:58;14.60;99.90
11569;DHT22;5840;46.894;15.542;2022-09-09T05:33:26;14.60;99.90
11569;DHT22;5840;46.894;15.542;2022-09-09T05:36:03;14.60;99.90
11569;DHT22;5840;46.894;15.542;2022-09-09T05:38:31;14.60;99.90
11569;DHT22;5840;46.894;15.542;2022-09-09T05:40:58;14.70;99.90
11569;DHT22;5840;46.894;15.542;2022-09-09T05:43:26;14.70;99.90
11569;DHT22;5840;46.894;15.542;2022-09-09T05:46:01;14.70;99.90
11569;DHT22;5840;46.894;15.542;2022-09-09T05:48:29;14.80;99.90
11569;DHT22;5840;46.894;15.542;2022-09-09T05:50:57;14.90;99.90
11569;DHT22;5840;46.894;15.542;2022-09-09T05:53:26;14.90;99.90
11569;DHT22;5840;46.894;15.542;2022-09-09T05:56:00;15.00;99.90
11569;DHT22;5840;46.894;15.542;2022-09-09T05:58:29;15.10;99.90
11569;DHT22;5840;46.894;15.542;2022-09-09T06:01:03;15.10;99.90
11569;DHT22;5840;46.894;15.542;2022-09-09T06:03:32;15.20;99.90
11569;DHT22;5840;46.894;15.542;2022-09-09T06:06:00;15.30;99.90
11569;DHT22;5840;46.894;15.542;2022-09-09T06:08:28;15.40;99.90
11569;DHT22;5840;46.894;15.542;2022-09-09T06:11:01;15.50;99.90
11569;DHT22;5840;46.894;15.542;2022-09-09T06:13:29;15.60;99.90
11569;DHT22;5840;46.894;15.542;2022-09-09T06:15:57;15.60;99.90
11569;DHT22;5840;46.894;15.542;2022-09-09T06:18:24;15.60;99.90
11569;DHT22;5840;46.894;15.542;2022-09-09T06:20:56;15.60;99.90
11569;DHT22;5840;46.894;15.542;2022-09-09T06:23:23;15.60;99.90
11569;DHT22;5840;46.894;15.542;2022-09-09T06:26:00;15.70;99.90
11569;DHT22;5840;46.894;15.542;2022-09-09T06:28:27;15.70;99.90
11569;DHT22;5840;46.894;15.542;2022-09-09T06:30:57;15.80;99.90
11569;DHT22;5840;46.894;15.542;2022-09-09T06:33:25;15.90;99.90
11569;DHT22;5840;46.894;15.542;2022-09-09T06:35:52;16.00;99.90
11569;DHT22;5840;46.894;15.542;2022-09-09T06:38:19;16.00;99.90
11569;DHT22;5840;46.894;15.542;2022-09-09T06:40:52;16.00;99.90
11569;DHT22;5840;46.894;15.542;2022-09-09T06:43:20;16.20;99.90
11569;DHT22;5840;46.894;15.542;2022-09-09T06:45:53;16.30;99.90
11569;DHT22;5840;46.894;15.542;2022-09-09T06:48:20;16.40;99.90
11569;DHT22;5840;46.894;15.542;2022-09-09T06:50:47;16.50;99.90
11569;DHT22;5840;46.894;15.542;2022-09-09T06:53:16;16.50;99.90
11569;DHT22;5840;46.894;15.542;2022-09-09T06:55:44;16.40;99.90
11569;DHT22;5840;46.894;15.542;2022-09-09T06:58:13;16.40;99.90
11569;DHT22;5840;46.894;15.542;2022-09-09T07:00:40;16.40;99.90
11569;DHT22;5840;46.894;15.542;2022-09-09T07:03:07;16.40;99.90
11569;DHT22;5840;46.894;15.542;2022-09-09T07:05:36;16.40;99.90
11569;DHT22;5840;46.894;15.542;2022-09-09T07:08:03;16.30;99.90
11569;DHT22;5840;46.894;15.542;2022-09-09T07:10:31;16.30;99.90
11569;DHT22;5840;46.894;15.542;2022-09-09T07:12:59;16.30;99.90
11569;DHT22;5840;46.894;15.542;2022-09-09T07:15:29;16.30;99.90
11569;DHT22;5840;46.894;15.542;2022-09-09T07:17:55;16.20;99.90
11569;DHT22;5840;46.894;15.542;2022-09-09T07:20:27;16.30;99.90
11569;DHT22;5840;46.894;15.542;2022-09-09T07:22:55;16.30;99.90
11569;DHT22;5840;46.894;15.542;2022-09-09T07:25:24;16.30;99.90
11569;DHT22;5840;46.894;15.542;2022-09-09T07:27:52;16.30;99.90
11569;DHT22;5840;46.894;15.542;2022-09-09T07:30:19;16.30;99.90
11569;DHT22;5840;46.894;15.542;2022-09-09T07:32:47;16.30;99.90
11569;DHT22;5840;46.894;15.542;2022-09-09T07:35:14;16.40;99.90
11569;DHT22;5840;46.894;15.542;2022-09-09T07:37:41;16.40;99.90
11569;DHT22;5840;46.894;15.542;2022-09-09T07:40:08;16.50;99.90
11569;DHT22;5840;46.894;15.542;2022-09-09T07:42:35;16.50;99.90
11569;DHT22;5840;46.894;15.542;2022-09-09T07:45:03;16.50;99.90
11569;DHT22;5840;46.894;15.542;2022-09-09T07:47:31;16.50;99.90
11569;DHT22;5840;46.894;15.542;2022-09-09T07:49:59;16.60;99.90
11569;DHT22;5840;46.894;15.542;2022-09-09T07:52:27;16.70;99.90
11569;DHT22;5840;46.894;15.542;2022-09-09T07:54:54;16.80;99.90
11569;DHT22;5840;46.894;15.542;2022-09-09T07:57:21;16.90;99.90
11569;DHT22;5840;46.894;15.542;2022-09-09T07:59:48;16.90;99.90
11569;DHT22;5840;46.894;15.542;2022-09-09T08:02:16;17.00;99.90
11569;DHT22;5840;46.894;15.542;2022-09-09T08:04:43;17.10;99.90
11569;DHT22;5840;46.894;15.542;2022-09-09T08:07:11;17.10;99.90
11569;DHT22;5840;46.894;15.542;2022-09-09T08:09:38;17.20;99.90
11569;DHT22;5840;46.894;15.542;2022-09-09T08:12:05;17.30;99.90
11569;DHT22;5840;46.894;15.542;2022-09-09T08:14:34;17.40;99.90
11569;DHT22;5840;46.894;15.542;2022-09-09T08:17:01;17.50;99.90
11569;DHT22;5840;46.894;15.542;2022-09-09T08:19:28;17.70;99.90
11569;DHT22;5840;46.894;15.542;2022-09-09T08:21:55;17.80;99.90
11569;DHT22;5840;46.894;15.542;2022-09-09T08:24:24;18.00;99.90
11569;DHT22;5840;46.894;15.542;2022-09-09T08:26:51;18.20;99.90
11569;DHT22;5840;46.894;15.542;2022-09-09T08:29:19;18.50;99.90
11569;DHT22;5840;46.894;15.542;2022-09-09T08:31:47;18.90;99.90
11569;DHT22;5840;46.894;15.542;2022-09-09T08:34:14;19.20;99.90
11569;DHT22;5840;46.894;15.542;2022-09-09T08:36:43;19.40;99.90
11569;DHT22;5840;46.894;15.542;2022-09-09T08:39:12;20.00;99.90
11569;DHT22;5840;46.894;15.542;2022-09-09T08:41:57;20.50;99.90
11569;DHT22;5840;46.894;15.542;2022-09-09T08:44:36;20.90;99.90
11569;DHT22;5840;46.894;15.542;2022-09-09T08:47:11;21.40;99.90
11569;DHT22;5840;46.894;15.542;2022-09-09T08:52:38;22.50;99.90
11569;DHT22;5840;46.894;15.542;2022-09-09T08:55:20;22.90;99.90
11569;DHT22;5840;46.894;15.542;2022-09-09T08:57:52;23.00;99.90
11569;DHT22;5840;46.894;15.542;2022-09-09T09:00:20;22.80;99.90
11569;DHT22;5840;46.894;15.542;2022-09-09T09:02:54;22.60;99.90
11569;DHT22;5840;46.894;15.542;2022-09-09T09:05:32;22.30;99.90
11569;DHT22;5840;46.894;15.542;2022-09-09T09:08:08;22.10;99.90
11569;DHT22;5840;46.894;15.542;2022-09-09T09:10:45;22.30;99.90
11569;DHT22;5840;46.894;15.542;2022-09-09T09:13:17;22.70;99.90
11569;DHT22;5840;46.894;15.542;2022-09-09T09:15:50;22.90;99.90
11569;DHT22;5840;46.894;15.542;2022-09-09T09:18:19;23.20;99.90
11569;DHT22;5840;46.894;15.542;2022-09-09T09:20:54;23.40;99.90
11569;DHT22;5840;46.894;15.542;2022-09-09T09:23:26;23.40;99.90
11569;DHT22;5840;46.894;15.542;2022-09-09T09:25:59;23.30;99.90
11569;DHT22;5840;46.894;15.542;2022-09-09T09:28:30;23.30;99.90
11569;DHT22;5840;46.894;15.542;2022-09-09T09:31:03;23.40;99.90
11569;DHT22;5840;46.894;15.542;2022-09-09T09:33:36;23.70;99.90
11569;DHT22;5840;46.894;15.542;2022-09-09T09:36:06;24.10;99.90
11569;DHT22;5840;46.894;15.542;2022-09-09T09:38:35;24.40;99.90
11569;DHT22;5840;46.894;15.542;2022-09-09T09:41:02;24.70;99.90
11569;DHT22;5840;46.894;15.542;2022-09-09T09:43:32;25.00;99.90
11569;DHT22;5840;46.894;15.542;2022-09-09T09:45:59;25.10;99.90
11569;DHT22;5840;46.894;15.542;2022-09-09T09:48:27;25.20;99.90
11569;DHT22;5840;46.894;15.542;2022-09-09T09:50:56;25.40;99.90
11569;DHT22;5840;46.894;15.542;2022-09-09T09:53:26;25.60;99.90
11569;DHT22;5840;46.894;15.542;2022-09-09T09:55:56;25.50;99.00
11569;DHT22;5840;46.894;15.542;2022-09-09T09:58:25;25.40;99.30
11569;DHT22;5840;46.894;15.542;2022-09-09T10:00:55;25.20;99.90
11569;DHT22;5840;46.894;15.542;2022-09-09T10:03:24;25.00;99.90
11569;DHT22;5840;46.894;15.542;2022-09-09T10:05:51;24.90;99.90
11569;DHT22;5840;46.894;15.542;2022-09-09T10:08:19;24.90;99.90
11569;DHT22;5840;46.894;15.542;2022-09-09T10:10:57;24.80;99.50
11569;DHT22;5840;46.894;15.542;2022-09-09T10:13:29;24.60;99.10
11569;DHT22;5840;46.894;15.542;2022-09-09T10:16:09;24.30;98.30
11569;DHT22;5840;46.894;15.542;2022-09-09T10:18:52;24.20;99.90
11569;DHT22;5840;46.894;15.542;2022-09-09T10:21:37;24.10;99.40
11569;DHT22;5840;46.894;15.542;2022-09-09T10:24:30;24.10;99.90
11569;DHT22;5840;46.894;15.542;2022-09-09T10:27:05;23.90;99.90
11569;DHT22;5840;46.894;15.542;2022-09-09T10:30:03;23.80;99.90
11569;DHT22;5840;46.894;15.542;2022-09-09T10:32:41;23.80;99.90
11569;DHT22;5840;46.894;15.542;2022-09-09T10:35:17;23.70;99.90
11569;DHT22;5840;46.894;15.542;2022-09-09T10:38:15;23.70;99.90
11569;DHT22;5840;46.894;15.542;2022-09-09T10:43:46;23.70;99.90
11569;DHT22;5840;46.894;15.542;2022-09-09T10:46:21;23.80;99.90
11569;DHT22;5840;46.894;15.542;2022-09-09T10:49:07;23.70;99.90
11569;DHT22;5840;46.894;15.542;2022-09-09T10:51:47;23.70;99.90
11569;DHT22;5840;46.894;15.542;2022-09-09T10:54:30;23.70;99.90
11569;DHT22;5840;46.894;15.542;2022-09-09T10:57:04;23.70;99.90
11569;DHT22;5840;46.894;15.542;2022-09-09T10:59:35;23.60;99.90
11569;DHT22;5840;46.894;15.542;2022-09-09T11:02:10;23.60;99.90
11569;DHT22;5840;46.894;15.542;2022-09-09T11:04:46;23.60;99.90
11569;DHT22;5840;46.894;15.542;2022-09-09T11:07:23;23.50;99.90
11569;DHT22;5840;46.894;15.542;2022-09-09T11:10:01;23.50;99.90
11569;DHT22;5840;46.894;15.542;2022-09-09T11:12:30;23.50;99.90
11569;DHT22;5840;46.894;15.542;2022-09-09T11:15:03;23.50;99.90
11569;DHT22;5840;46.894;15.542;2022-09-09T11:17:36;23.50;99.90
11569;DHT22;5840;46.894;15.542;2022-09-09T11:20:11;23.50;99.90
11569;DHT22;5840;46.894;15.542;2022-09-09T11:22:45;23.60;99.90
11569;DHT22;5840;46.894;15.542;2022-09-09T11:25:16;23.70;99.90
11569;DHT22;5840;46.894;15.542;2022-09-09T11:27:58;23.80;99.90
11569;DHT22;5840;46.894;15.542;2022-09-09T11:30:34;23.90;99.90
11569;DHT22;5840;46.894;15.542;2022-09-09T11:36:18;24.00;99.90
11569;DHT22;5840;46.894;15.542;2022-09-09T11:38:51;23.90;99.90
11569;DHT22;5840;46.894;15.542;2022-09-09T11:41:19;23.70;99.90
11569;DHT22;5840;46.894;15.542;2022-09-09T11:43:48;23.60;99.90
11569;DHT22;5840;46.894;15.542;2022-09-09T11:46:18;23.50;99.90
11569;DHT22;5840;46.894;15.542;2022-09-09T11:48:58;23.40;99.90
11569;DHT22;5840;46.894;15.542;2022-09-09T11:51:29;23.20;99.90
11569;DHT22;5840;46.894;15.542;2022-09-09T11:53:57;23.10;99.90
11569;DHT22;5840;46.894;15.542;2022-09-09T11:56:28;23.10;99.90
11569;DHT22;5840;46.894;15.542;2022-09-09T11:58:59;23.10;99.90
11569;DHT22;5840;46.894;15.542;2022-09-09T12:01:38;23.00;99.90
11569;DHT22;5840;46.894;15.542;2022-09-09T12:07:24;22.80;99.90
11569;DHT22;5840;46.894;15.542;2022-09-09T12:09:57;22.80;99.90
11569;DHT22;5840;46.894;15.542;2022-09-09T12:12:29;22.70;99.90
11569;DHT22;5840;46.894;15.542;2022-09-09T12:14:59;22.70;99.90
11569;DHT22;5840;46.894;15.542;2022-09-09T12:17:28;22.70;99.90
11569;DHT22;5840;46.894;15.542;2022-09-09T12:20:08;22.80;99.90
11569;DHT22;5840;46.894;15.542;2022-09-09T12:22:47;22.90;99.90
11569;DHT22;5840;46.894;15.542;2022-09-09T12:25:23;23.00;99.90
11569;DHT22;5840;46.894;15.542;2022-09-09T12:28:04;23.10;99.90
11569;DHT22;5840;46.894;15.542;2022-09-09T12:30:37;23.10;99.90
11569;DHT22;5840;46.894;15.542;2022-09-09T12:33:11;23.10;99.90
11569;DHT22;5840;46.894;15.542;2022-09-09T12:35:40;23.00;99.90
11569;DHT22;5840;46.894;15.542;2022-09-09T12:38:15;22.90;99.90
11569;DHT22;5840;46.894;15.542;2022-09-09T12:40:54;22.80;99.90
11569;DHT22;5840;46.894;15.542;2022-09-09T12:43:23;22.70;99.90
11569;DHT22;5840;46.894;15.542;2022-09-09T12:45:51;22.60;99.90
11569;DHT22;5840;46.894;15.542;2022-09-09T12:48:28;22.50;99.90
11569;DHT22;5840;46.894;15.542;2022-09-09T12:50:55;22.40;99.90
11569;DHT22;5840;46.894;15.542;2022-09-09T12:53:26;22.30;99.90
11569;DHT22;5840;46.894;15.542;2022-09-09T12:55:57;22.30;99.90
11569;DHT22;5840;46.894;15.542;2022-09-09T12:58:25;22.20;99.90
11569;DHT22;5840;46.894;15.542;2022-09-09T13:00:58;22.20;99.90
11569;DHT22;5840;46.894;15.542;2022-09-09T13:03:26;22.20;99.90
11569;DHT22;5840;46.894;15.542;2022-09-09T13:05:54;22.20;99.90
11569;DHT22;5840;46.894;15.542;2022-09-09T13:08:26;22.20;99.90
11569;DHT22;5840;46.894;15.542;2022-09-09T13:10:54;22.20;99.90
11569;DHT22;5840;46.894;15.542;2022-09-09T13:13:27;22.20;99.90
11569;DHT22;5840;46.894;15.542;2022-09-09T13:15:57;22.20;99.90
11569;DHT22;5840;46.894;15.542;2022-09-09T13:18:28;22.10;99.90
11569;DHT22;5840;46.894;15.542;2022-09-09T13:20:56;22.20;99.90
11569;DHT22;5840;46.894;15.542;2022-09-09T13:23:27;22.10;99.90
11569;DHT22;5840;46.894;15.542;2022-09-09T13:25:56;22.00;99.90
11569;DHT22;5840;46.894;15.542;2022-09-09T13:28:25;21.90;99.90
11569;DHT22;5840;46.894;15.542;2022-09-09T13:30:59;21.90;99.90
11569;DHT22;5840;46.894;15.542;2022-09-09T13:33:32;21.80;99.90
11569;DHT22;5840;46.894;15.542;2022-09-09T13:36:01;21.70;99.90
11569;DHT22;5840;46.894;15.542;2022-09-09T13:38:33;21.70;99.90
11569;DHT22;5840;46.894;15.542;2022-09-09T13:41:03;21.60;99.90
11569;DHT22;5840;46.894;15.542;2022-09-09T13:43:34;21.50;99.90
11569;DHT22;5840;46.894;15.542;2022-09-09T13:46:05;21.50;99.90
11569;DHT22;5840;46.894;15.542;2022-09-09T13:48:32;21.40;99.90
11569;DHT22;5840;46.894;15.542;2022-09-09T13:51:01;21.40;99.90
11569;DHT22;5840;46.894;15.542;2022-09-09T13:53:29;21.40;99.90
11569;DHT22;5840;46.894;15.542;2022-09-09T13:55:58;21.40;99.90
11569;DHT22;5840;46.894;15.542;2022-09-09T13:58:25;21.50;99.90
11569;DHT22;5840;46.894;15.542;2022-09-09T14:00:53;21.50;99.90
11569;DHT22;5840;46.894;15.542;2022-09-09T14:03:20;21.50;99.90
11569;DHT22;5840;46.894;15.542;2022-09-09T14:05:47;21.50;99.90
11569;DHT22;5840;46.894;15.542;2022-09-09T14:08:22;21.50;99.90
11569;DHT22;5840;46.894;15.542;2022-09-09T14:10:50;21.50;99.90
11569;DHT22;5840;46.894;15.542;2022-09-09T14:13:19;21.40;99.90
11569;DHT22;5840;46.894;15.542;2022-09-09T14:15:48;21.40;99.90
11569;DHT22;5840;46.894;15.542;2022-09-09T14:18:16;21.30;99.90
11569;DHT22;5840;46.894;15.542;2022-09-09T14:20:44;21.30;99.90
11569;DHT22;5840;46.894;15.542;2022-09-09T14:23:11;21.20;99.90
11569;DHT22;5840;46.894;15.542;2022-09-09T14:25:42;21.20;99.90
11569;DHT22;5840;46.894;15.542;2022-09-09T14:28:10;21.20;99.90
11569;DHT22;5840;46.894;15.542;2022-09-09T14:30:40;21.10;99.90
11569;DHT22;5840;46.894;15.542;2022-09-09T14:33:11;21.10;99.90
11569;DHT22;5840;46.894;15.542;2022-09-09T14:35:38;21.10;99.90
11569;DHT22;5840;46.894;15.542;2022-09-09T14:38:07;21.10;99.90
11569;DHT22;5840;46.894;15.542;2022-09-09T14:40:34;21.00;99.90
11569;DHT22;5840;46.894;15.542;2022-09-09T14:43:02;21.00;99.90
11569;DHT22;5840;46.894;15.542;2022-09-09T14:45:29;20.90;99.90
11569;DHT22;5840;46.894;15.542;2022-09-09T14:47:58;20.90;99.90
11569;DHT22;5840;46.894;15.542;2022-09-09T14:50:25;20.90;99.90
11569;DHT22;5840;46.894;15.542;2022-09-09T14:52:52;20.80;99.90
11569;DHT22;5840;46.894;15.542;2022-09-09T14:55:19;20.80;99.90
11569;DHT22;5840;46.894;15.542;2022-09-09T14:57:46;20.80;99.90
11569;DHT22;5840;46.894;15.542;2022-09-09T15:00:14;20.80;99.90
11569;DHT22;5840;46.894;15.542;2022-09-09T15:02:41;20.70;99.90
11569;DHT22;5840;46.894;15.542;2022-09-09T15:05:10;20.70;99.90
11569;DHT22;5840;46.894;15.542;2022-09-09T15:07:37;20.70;99.90
11569;DHT22;5840;46.894;15.542;2022-09-09T15:10:05;20.70;99.90
11569;DHT22;5840;46.894;15.542;2022-09-09T15:12:32;20.60;99.90
11569;DHT22;5840;46.894;15.542;2022-09-09T15:15:01;20.60;99.90
11569;DHT22;5840;46.894;15.542;2022-09-09T15:17:28;20.50;99.90
11569;DHT22;5840;46.894;15.542;2022-09-09T15:19:55;20.50;99.90
11569;DHT22;5840;46.894;15.542;2022-09-09T15:22:24;20.50;99.90
11569;DHT22;5840;46.894;15.542;2022-09-09T15:24:51;20.60;99.90
11569;DHT22;5840;46.894;15.542;2022-09-09T15:27:18;20.70;99.90
11569;DHT22;5840;46.894;15.542;2022-09-09T15:29:45;20.70;99.90
11569;DHT22;5840;46.894;15.542;2022-09-09T15:32:12;20.70;99.90
11569;DHT22;5840;46.894;15.542;2022-09-09T15:34:39;20.70;99.90
11569;DHT22;5840;46.894;15.542;2022-09-09T15:37:06;20.70;99.90
11569;DHT22;5840;46.894;15.542;2022-09-09T15:39:38;20.60;99.90
11569;DHT22;5840;46.894;15.542;2022-09-09T15:42:05;20.60;99.90
11569;DHT22;5840;46.894;15.542;2022-09-09T15:44:38;20.50;99.90
11569;DHT22;5840;46.894;15.542;2022-09-09T15:47:06;20.40;99.90
11569;DHT22;5840;46.894;15.542;2022-09-09T15:49:32;20.30;99.90
11569;DHT22;5840;46.894;15.542;2022-09-09T15:52:00;20.30;99.90
11569;DHT22;5840;46.894;15.542;2022-09-09T15:54:32;20.20;99.90
11569;DHT22;5840;46.894;15.542;2022-09-09T15:57:02;20.20;99.90
11569;DHT22;5840;46.894;15.542;2022-09-09T15:59:31;20.10;99.90
11569;DHT22;5840;46.894;15.542;2022-09-09T16:01:59;20.00;99.90
11569;DHT22;5840;46.894;15.542;2022-09-09T16:04:27;20.00;99.90
11569;DHT22;5840;46.894;15.542;2022-09-09T16:06:56;19.90;99.90